Time;durP1;ratioP1;P1;durP2;ratioP2;P2;SDS_P1;SDS_P2;PMS_P1;PMS_P2;Temp;Humidity;BMP_temperature;BMP_pressure;BME280_temperature;BME280_humidity;BME280_pressure;Samples;Min_cycle;Max_cycle;Signal;HPM_P1;HPM_P2
2023/06/19 00:00:31;;;;;;;;;;;;;;;;;;5086225;28;19954;-40
2023/06/19 05:08:56;;;;;;;;;;;;;;;;;;5086369;28;20004;-40
2023/06/19 05:11:21;;;;;;;;;;;;;;;;;;5091351;28;20011;-40
2023/06/19 05:13:47;;;;;;;;;;;;;;;;;;5090829;28;20465;-40
2023/06/19 05:16:16;;;;;;;;;;;;;;;;;;5089886;28;20124;-40
2023/06/19 05:18:42;;;;;;;;;;;;;;;;;;5091321;28;19908;-40
2023/06/19 05:21:09;;;;;;;;;;;;;;;;;;5091291;28;19909;-40
2023/06/19 05:23:35;;;;;;;;;;;;;;;;;;5091500;28;19908;-40
2023/06/19 05:26:01;;;;;;;;;;;;;;;;;;5091332;28;19912;-39
2023/06/19 05:28:27;;;;;;;;;;;;;;;;;;5091329;28;19908;-40
2023/06/19 05:30:53;;;;;;;;;;;;;;;;;;5090485;28;20281;-40
2023/06/19 05:33:19;;;;;;;;;;;;;;;;;;5091747;28;19919;-40
2023/06/19 05:35:51;;;;;;;;;;;;;;;;;;5091050;28;19912;-39
2023/06/19 05:38:17;;;;;;;;;;;;;;;;;;5085483;28;19912;-50
2023/06/19 05:40:42;;;;;;;;;;;;;;;;;;5088698;28;19920;-46
2023/06/19 05:43:08;;;;;;;;;;;;;;;;;;5089424;28;19939;-50
2023/06/19 05:45:34;;;;;;;;;;;;;;;;;;5090700;28;19912;-47
2023/06/19 05:48:00;;;;;;;;;;;;;;;;;;5090596;28;19919;-49
2023/06/19 05:50:26;;;;;;;;;;;;;;;;;;5091301;28;20438;-50
2023/06/19 05:52:52;;;;;;;;;;;;;;;;;;5087622;28;21212;-50
2023/06/19 05:55:18;;;;;;;;;;;;;;;;;;5090782;28;20406;-51
2023/06/19 05:57:45;;;;;;;;;;;;;;;;;;5090375;28;19935;-46
2023/06/19 06:00:14;;;;;;;;;;;;;;;;;;5088841;28;19916;-50
2023/06/19 06:02:39;;;;;;;;;;;;;;;;;;5081037;28;20011;-51
2023/06/19 06:05:05;;;;;;;;;;;;;;;;;;5091957;28;20011;-49
2023/06/19 06:07:31;;;;;;;;;;;;;;;;;;5091600;28;19916;-47
2023/06/19 06:09:58;;;;;;;;;;;;;;;;;;5092172;28;20308;-50
2023/06/19 06:12:24;;;;;;;;;;;;;;;;;;5090822;28;19922;-51
2023/06/19 06:14:49;;;;;;;;;;;;;;;;;;5091539;28;20368;-50
2023/06/19 06:17:15;;;;;;;;;;;;;;;;;;5091213;28;19915;-51
2023/06/19 06:19:41;;;;;;;;;;;;;;;;;;5090529;28;19916;-48
2023/06/19 06:22:07;;;;;;;;;;;;;;;;;;5091802;28;19930;-50
2023/06/19 06:24:33;;;;;;;;;;;;;;;;;;5090556;28;20471;-47
2023/06/19 06:26:59;;;;;;;;;;;;;;;;;;5091624;28;20007;-50
2023/06/19 06:29:25;;;;;;;;;;;;;;;;;;5090249;28;19916;-51
2023/06/19 06:31:52;;;;;;;;;;;;;;;;;;5076802;28;20010;-47
2023/06/19 06:34:18;;;;;;;;;;;;;;;;;;5091060;28;19919;-50
2023/06/19 06:36:44;;;;;;;;;;;;;;;;;;5091016;28;19908;-51
2023/06/19 06:39:10;;;;;;;;;;;;;;;;;;5091948;28;20257;-49
2023/06/19 06:41:36;;;;;;;;;;;;;;;;;;5090848;28;20296;-48
2023/06/19 06:44:02;;;;;;;;;;;;;;;;;;5084354;28;19923;-48
2023/06/19 06:46:28;;;;;;;;;;;;;;;;;;5092204;28;20050;-49
2023/06/19 06:48:54;;;;;;;;;;;;;;;;;;5091053;28;19923;-51
2023/06/19 06:51:22;;;;;;;;;;;;;;;;;;5092009;28;19919;-50
2023/06/19 06:53:47;;;;;;;;;;;;;;;;;;5090776;28;19915;-48
2023/06/19 06:56:14;;;;;;;;;;;;;;;;;;5092050;28;19911;-45
2023/06/19 06:58:40;;;;;;;;;;;;;;;;;;5090290;28;19915;-47
2023/06/19 07:01:06;;;;;;;;;;;;;;;;;;5091911;28;20012;-49
2023/06/19 07:03:32;;;;;;;;;;;;;;;;;;5090457;28;20398;-50
2023/06/19 07:05:58;;;;;;;;;;;;;;;;;;5090473;28;19908;-48
2023/06/19 07:08:24;;;;;;;;;;;;;;;;;;5089996;28;19999;-49
2023/06/19 07:10:50;;;;;;;;;;;;;;;;;;5080837;28;19947;-45
2023/06/19 07:13:16;;;;;;;;;;;;;;;;;;5076002;28;19928;-47
2023/06/19 07:15:41;;;;;;;;;;;;;;;;;;5086072;28;19916;-46
2023/06/19 07:18:07;;;;;;;;;;;;;;;;;;5088526;28;19958;-47
2023/06/19 07:20:33;;;;;;;;;;;;;;;;;;5088490;28;19908;-51
2023/06/19 07:23:00;;;;;;;;;;;;;;;;;;5089292;28;20011;-50
2023/06/19 07:25:26;;;;;;;;;;;;;;;;;;5087976;28;20026;-49
2023/06/19 07:27:52;;;;;;;;;;;;;;;;;;5088505;28;19935;-50
2023/06/19 07:30:18;;;;;;;;;;;;;;;;;;5089091;28;19986;-50
2023/06/19 07:32:44;;;;;;;;;;;;;;;;;;5089340;28;20006;-47
2023/06/19 07:35:11;;;;;;;;;;;;;;;;;;5088491;28;19955;-49
2023/06/19 07:37:37;;;;;;;;;;;;;;;;;;5069634;28;19948;-46
2023/06/19 07:40:03;;;;;;;;;;;;;;;;;;5069024;28;19951;-50
2023/06/19 07:42:29;;;;;;;;;;;;;;;;;;5086837;28;20361;-47
2023/06/19 07:44:55;;;;;;;;;;;;;;;;;;5088907;28;20404;-48
2023/06/19 07:47:20;;;;;;;;;;;;;;;;;;5088462;28;19974;-49
2023/06/19 07:49:46;;;;;;;;;;;;;;;;;;5088980;28;19918;-47
2023/06/19 07:52:13;;;;;;;;;;;;;;;;;;5088000;28;20304;-49
2023/06/19 07:54:39;;;;;;;;;;;;;;;;;;5088592;28;19923;-47
2023/06/19 07:57:05;;;;;;;;;;;;;;;;;;5088550;28;20296;-49
2023/06/19 07:59:31;;;;;;;;;;;;;;;;;;5088730;28;19957;-48
2023/06/19 08:01:57;;;;;;;;;;;;;;;;;;5088800;28;19916;-50
2023/06/19 08:04:23;;;;;;;;;;;;;;;;;;5088177;28;19939;-49
2023/06/19 08:06:49;;;;;;;;;;;;;;;;;;5086382;28;19916;-49
2023/06/19 08:09:15;;;;;;;;;;;;;;;;;;5088582;28;19908;-48
2023/06/19 08:11:41;;;;;;;;;;;;;;;;;;5088470;28;20014;-49
2023/06/19 08:14:07;;;;;;;;;;;;;;;;;;5089133;28;19912;-50
2023/06/19 08:16:33;;;;;;;;;;;;;;;;;;5087775;28;19912;-51
2023/06/19 08:18:59;;;;;;;;;;;;;;;;;;5087129;28;20276;-49
2023/06/19 08:21:25;;;;;;;;;;;;;;;;;;5088699;28;19943;-45
2023/06/19 08:23:53;;;;;;;;;;;;;;;;;;5086353;28;20225;-49
2023/06/19 08:26:19;;;;;;;;;;;;;;;;;;5087633;28;19965;-48
2023/06/19 08:28:45;;;;;;;;;;;;;;;;;;5088235;28;19909;-51
2023/06/19 08:31:11;;;;;;;;;;;;;;;;;;5088399;28;19977;-51
2023/06/19 08:33:37;;;;;;;;;;;;;;;;;;5089053;28;19916;-47
2023/06/19 08:36:03;;;;;;;;;;;;;;;;;;5085707;28;19961;-48
2023/06/19 08:38:29;;;;;;;;;;;;;;;;;;5088217;28;19920;-49
2023/06/19 08:40:55;;;;;;;;;;;;;;;;;;5088306;28;19933;-48
2023/06/19 08:43:21;;;;;;;;;;;;;;;;;;5083668;28;19913;-46
2023/06/19 08:45:47;;;;;;;;;;;;;;;;;;5086539;28;19962;-51
2023/06/19 08:48:13;;;;;;;;;;;;;;;;;;5087066;28;19933;-50
2023/06/19 08:50:39;;;;;;;;;;;;;;;;;;5086948;28;19916;-49
2023/06/19 08:53:05;;;;;;;;;;;;;;;;;;5087539;28;20344;-47
2023/06/19 08:55:31;;;;;;;;;;;;;;;;;;5085945;28;19912;-48
2023/06/19 08:57:57;;;;;;;;;;;;;;;;;;5085304;28;20419;-51
2023/06/19 09:00:22;;;;;;;;;;;;;;;;;;5086758;28;19919;-50
2023/06/19 09:02:48;;;;;;;;;;;;;;;;;;5086892;28;19912;-48
2023/06/19 09:05:14;;;;;;;;;;;;;;;;;;5086919;28;19908;-47
2023/06/19 09:07:40;;;;;;;;;;;;;;;;;;5084840;28;20168;-51
2023/06/19 09:10:06;;;;;;;;;;;;;;;;;;5087141;28;20373;-48
2023/06/19 09:12:33;;;;;;;;;;;;;;;;;;5095958;28;19920;-47
2023/06/19 09:14:59;;;;;;;;;;;;;;;;;;5107046;28;19912;-47
2023/06/19 09:17:26;;;;;;;;;;;;;;;;;;5088106;28;19927;-49
2023/06/19 09:19:52;;;;;;;;;;;;;;;;;;5086928;28;19912;-45
2023/06/19 09:22:20;;;;;;;;;;;;;;;;;;5087331;28;19965;-50
2023/06/19 09:24:46;;;;;;;;;;;;;;;;;;5086616;28;19960;-46
2023/06/19 09:27:13;;;;;;;;;;;;;;;;;;5085612;28;20013;-48
2023/06/19 09:29:40;;;;;;;;;;;;;;;;;;5086247;28;20331;-49
2023/06/19 09:32:06;;;;;;;;;;;;;;;;;;5086519;28;19972;-48
2023/06/19 09:34:32;;;;;;;;;;;;;;;;;;5086392;28;19941;-51
2023/06/19 09:36:58;;;;;;;;;;;;;;;;;;5085586;28;20419;-50
2023/06/19 09:39:24;;;;;;;;;;;;;;;;;;5087532;28;19912;-48
2023/06/19 09:41:50;;;;;;;;;;;;;;;;;;5088094;28;19908;-47
2023/06/19 09:44:16;;;;;;;;;;;;;;;;;;5082959;28;19973;-49
2023/06/19 09:46:42;;;;;;;;;;;;;;;;;;5086898;28;19920;-50
2023/06/19 09:49:08;;;;;;;;;;;;;;;;;;5091226;28;19943;-50
2023/06/19 09:51:34;;;;;;;;;;;;;;;;;;5091471;28;19912;-47
2023/06/19 09:54:02;;;;;;;;;;;;;;;;;;5090130;28;19912;-51
2023/06/19 09:56:27;;;;;;;;;;;;;;;;;;5088899;28;19916;-49
2023/06/19 09:58:53;;;;;;;;;;;;;;;;;;5089508;28;19912;-49
2023/06/19 10:01:19;;;;;;;;;;;;;;;;;;5089498;28;19939;-49
2023/06/19 10:03:45;;;;;;;;;;;;;;;;;;5089280;28;20332;-50
2023/06/19 10:06:11;;;;;;;;;;;;;;;;;;5088847;28;19991;-50
2023/06/19 10:08:37;;;;;;;;;;;;;;;;;;5089223;28;19938;-50
2023/06/19 10:11:03;;;;;;;;;;;;;;;;;;5089733;28;19923;-52
2023/06/19 10:13:29;;;;;;;;;;;;;;;;;;5089472;28;19923;-48
2023/06/19 10:15:56;;;;;;;;;;;;;;;;;;5087844;28;19920;-51
2023/06/19 10:18:24;;;;;;;;;;;;;;;;;;5090447;28;19908;-50
2023/06/19 10:20:51;;;;;;;;;;;;;;;;;;5090513;28;20006;-48
2023/06/19 10:23:18;;;;;;;;;;;;;;;;;;5090797;28;19912;-51
2023/06/19 10:25:44;;;;;;;;;;;;;;;;;;5090044;28;19914;-50
2023/06/19 10:28:10;;;;;;;;;;;;;;;;;;5088807;28;20475;-51
2023/06/19 10:30:36;;;;;;;;;;;;;;;;;;5089922;28;20003;-49
2023/06/19 10:33:05;;;;;;;;;;;;;;;;;;5089610;28;19908;-50
2023/06/19 10:35:30;;;;;;;;;;;;;;;;;;5088702;28;19916;-52
2023/06/19 10:37:56;;;;;;;;;;;;;;;;;;5089638;28;20219;-47
2023/06/19 10:40:22;;;;;;;;;;;;;;;;;;5087148;28;19916;-50
2023/06/19 10:42:48;;;;;;;;;;;;;;;;;;5089742;28;19920;-49
2023/06/19 10:45:17;;;;;;;;;;;;;;;;;;5088175;28;19934;-48
2023/06/19 10:47:43;;;;;;;;;;;;;;;;;;5088092;28;19919;-49
2023/06/19 10:50:09;;;;;;;;;;;;;;;;;;5090323;28;19920;-46
2023/06/19 10:52:35;;;;;;;;;;;;;;;;;;5088792;28;19916;-49
2023/06/19 10:55:01;;;;;;;;;;;;;;;;;;5089792;28;19985;-49
2023/06/19 10:57:27;;;;;;;;;;;;;;;;;;5088633;28;19966;-50
2023/06/19 10:59:53;;;;;;;;;;;;;;;;;;5088175;28;19956;-51
2023/06/19 11:02:19;;;;;;;;;;;;;;;;;;5089328;28;19920;-49
2023/06/19 11:04:45;;;;;;;;;;;;;;;;;;5081977;28;19930;-48
2023/06/19 11:07:11;;;;;;;;;;;;;;;;;;5087690;28;19926;-49
2023/06/19 11:09:37;;;;;;;;;;;;;;;;;;5088487;28;19916;-47
2023/06/19 11:12:03;;;;;;;;;;;;;;;;;;5090063;28;19985;-48
2023/06/19 11:14:29;;;;;;;;;;;;;;;;;;5089281;28;19981;-50
2023/06/19 11:16:54;;;;;;;;;;;;;;;;;;5089846;28;19908;-48
2023/06/19 11:19:20;;;;;;;;;;;;;;;;;;5089257;28;19951;-47
2023/06/19 11:21:46;;;;;;;;;;;;;;;;;;5089185;28;19919;-49
2023/06/19 11:24:12;;;;;;;;;;;;;;;;;;5089446;28;19908;-47
2023/06/19 11:26:38;;;;;;;;;;;;;;;;;;5071967;28;19917;-48
2023/06/19 11:29:04;;;;;;;;;;;;;;;;;;5069778;28;19916;-47
2023/06/19 11:31:30;;;;;;;;;;;;;;;;;;5073994;28;19927;-47
2023/06/19 11:33:56;;;;;;;;;;;;;;;;;;5089655;28;19912;-49
2023/06/19 11:36:22;;;;;;;;;;;;;;;;;;5089512;28;19904;-48
2023/06/19 11:38:48;;;;;;;;;;;;;;;;;;5087683;28;20041;-47
2023/06/19 11:41:15;;;;;;;;;;;;;;;;;;5088830;28;19915;-47
2023/06/19 11:43:41;;;;;;;;;;;;;;;;;;5088903;28;19918;-48
2023/06/19 11:46:07;;;;;;;;;;;;;;;;;;5084714;28;20388;-49
2023/06/19 11:48:33;;;;;;;;;;;;;;;;;;5088941;28;19995;-48
2023/06/19 11:50:59;;;;;;;;;;;;;;;;;;5089024;28;20475;-47
2023/06/19 11:53:25;;;;;;;;;;;;;;;;;;5088916;28;19908;-48
2023/06/19 11:55:51;;;;;;;;;;;;;;;;;;5088588;28;20109;-51
2023/06/19 11:58:19;;;;;;;;;;;;;;;;;;5088884;28;19912;-47
2023/06/19 12:00:45;;;;;;;;;;;;;;;;;;5088901;28;19912;-49
2023/06/19 12:03:11;;;;;;;;;;;;;;;;;;5088956;28;20375;-49
2023/06/19 12:05:37;;;;;;;;;;;;;;;;;;5088985;28;19908;-47
2023/06/19 12:08:04;;;;;;;;;;;;;;;;;;5089310;28;19908;-46
2023/06/19 12:10:30;;;;;;;;;;;;;;;;;;5088216;28;19923;-47
2023/06/19 12:12:56;;;;;;;;;;;;;;;;;;5088446;28;20842;-47
2023/06/19 12:15:21;;;;;;;;;;;;;;;;;;5087980;28;19912;-48
2023/06/19 12:17:47;;;;;;;;;;;;;;;;;;5088540;28;19978;-47
2023/06/19 12:20:14;;;;;;;;;;;;;;;;;;5088708;28;19911;-48
2023/06/19 12:22:39;;;;;;;;;;;;;;;;;;5088477;28;19912;-47
2023/06/19 12:25:05;;;;;;;;;;;;;;;;;;5088871;28;20289;-46
2023/06/19 12:27:31;;;;;;;;;;;;;;;;;;5087747;28;19912;-46
2023/06/19 12:29:57;;;;;;;;;;;;;;;;;;5088150;28;19908;-48
2023/06/19 12:32:23;;;;;;;;;;;;;;;;;;5086021;28;19931;-49
2023/06/19 12:34:53;;;;;;;;;;;;;;;;;;5088320;28;20384;-46
2023/06/19 12:37:20;;;;;;;;;;;;;;;;;;5087404;28;20003;-50
2023/06/19 12:39:46;;;;;;;;;;;;;;;;;;5087743;28;19908;-47
2023/06/19 12:42:12;;;;;;;;;;;;;;;;;;5085001;28;19999;-49
2023/06/19 12:44:38;;;;;;;;;;;;;;;;;;5085645;28;19912;-48
2023/06/19 12:47:05;;;;;;;;;;;;;;;;;;5079397;28;19917;-48
2023/06/19 12:49:31;;;;;;;;;;;;;;;;;;5066644;28;19913;-47
2023/06/19 12:51:57;;;;;;;;;;;;;;;;;;5064866;28;19918;-49
2023/06/19 12:54:24;;;;;;;;;;;;;;;;;;5085860;28;19908;-47
2023/06/19 12:56:50;;;;;;;;;;;;;;;;;;5083650;28;19919;-48
2023/06/19 12:59:16;;;;;;;;;;;;;;;;;;5084074;28;19919;-47
2023/06/19 13:01:41;;;;;;;;;;;;;;;;;;5085410;28;19930;-48
2023/06/19 13:04:07;;;;;;;;;;;;;;;;;;5085801;28;20023;-51
2023/06/19 13:06:34;;;;;;;;;;;;;;;;;;5084827;28;19908;-49
2023/06/19 13:09:00;;;;;;;;;;;;;;;;;;5084697;28;20273;-49
2023/06/19 13:11:26;;;;;;;;;;;;;;;;;;5084068;28;20255;-50
2023/06/19 13:13:51;;;;;;;;;;;;;;;;;;5085505;28;19908;-48
2023/06/19 13:16:18;;;;;;;;;;;;;;;;;;5085835;28;20006;-48
2023/06/19 13:18:44;;;;;;;;;;;;;;;;;;5085299;28;19934;-49
2023/06/19 13:21:10;;;;;;;;;;;;;;;;;;5084902;28;20362;-47
2023/06/19 13:23:36;;;;;;;;;;;;;;;;;;5088229;28;19954;-50
2023/06/19 13:26:02;;;;;;;;;;;;;;;;;;5090536;28;19912;-48
2023/06/19 13:28:28;;;;;;;;;;;;;;;;;;5090909;28;19912;-49
2023/06/19 13:30:54;;;;;;;;;;;;;;;;;;5090619;28;19954;-49
2023/06/19 13:33:20;;;;;;;;;;;;;;;;;;5089498;28;19912;-47
2023/06/19 13:35:46;;;;;;;;;;;;;;;;;;5090404;28;19953;-47
2023/06/19 13:38:12;;;;;;;;;;;;;;;;;;5090091;28;19920;-49
2023/06/19 13:40:38;;;;;;;;;;;;;;;;;;5090375;28;19916;-51
2023/06/19 13:43:06;;;;;;;;;;;;;;;;;;5091329;28;19912;-48
2023/06/19 13:45:32;;;;;;;;;;;;;;;;;;5091337;28;19938;-49
2023/06/19 13:47:58;;;;;;;;;;;;;;;;;;5088642;28;19962;-47
2023/06/19 13:50:24;;;;;;;;;;;;;;;;;;5090038;28;19923;-51
2023/06/19 13:52:50;;;;;;;;;;;;;;;;;;5089786;28;19912;-49
2023/06/19 13:55:16;;;;;;;;;;;;;;;;;;5090265;28;19908;-51
2023/06/19 13:57:43;;;;;;;;;;;;;;;;;;5088441;28;19920;-48
2023/06/19 14:00:10;;;;;;;;;;;;;;;;;;5078845;28;19916;-53
2023/06/19 14:02:36;;;;;;;;;;;;;;;;;;5090808;28;20385;-50
2023/06/19 14:05:02;;;;;;;;;;;;;;;;;;5089609;28;19947;-47
2023/06/19 14:07:28;;;;;;;;;;;;;;;;;;5087095;28;19951;-50
2023/06/19 14:09:54;;;;;;;;;;;;;;;;;;5089388;28;19959;-47
2023/06/19 14:12:21;;;;;;;;;;;;;;;;;;5083417;28;19919;-49
2023/06/19 14:14:47;;;;;;;;;;;;;;;;;;5089945;28;19935;-47
2023/06/19 14:17:13;;;;;;;;;;;;;;;;;;5091397;28;19944;-47
2023/06/19 14:19:39;;;;;;;;;;;;;;;;;;5089095;28;19929;-49
2023/06/19 14:22:05;;;;;;;;;;;;;;;;;;5090110;28;19973;-48
2023/06/19 14:24:31;;;;;;;;;;;;;;;;;;5088165;28;20007;-51
2023/06/19 14:26:58;;;;;;;;;;;;;;;;;;5073971;28;20015;-51
2023/06/19 14:29:24;;;;;;;;;;;;;;;;;;5086177;28;20420;-50
2023/06/19 14:31:50;;;;;;;;;;;;;;;;;;5086900;28;19920;-49
2023/06/19 14:34:16;;;;;;;;;;;;;;;;;;5086321;28;20331;-52
2023/06/19 14:36:41;;;;;;;;;;;;;;;;;;5086008;28;19919;-47
2023/06/19 14:39:07;;;;;;;;;;;;;;;;;;5084389;28;20409;-47
2023/06/19 14:41:33;;;;;;;;;;;;;;;;;;5071122;28;19920;-49
2023/06/19 14:44:00;;;;;;;;;;;;;;;;;;5086813;28;20422;-49
2023/06/19 14:46:26;;;;;;;;;;;;;;;;;;5078292;28;19920;-51
2023/06/19 14:48:52;;;;;;;;;;;;;;;;;;5079254;28;20342;-47
2023/06/19 14:51:18;;;;;;;;;;;;;;;;;;5084478;28;20018;-51
2023/06/19 14:53:45;;;;;;;;;;;;;;;;;;5085376;28;19935;-50
2023/06/19 14:56:11;;;;;;;;;;;;;;;;;;5086951;28;19918;-49
2023/06/19 14:58:38;;;;;;;;;;;;;;;;;;5084307;28;19912;-50
2023/06/19 15:01:03;;;;;;;;;;;;;;;;;;5080668;28;19916;-49
2023/06/19 15:03:29;;;;;;;;;;;;;;;;;;5082752;28;19924;-48
2023/06/19 15:05:55;;;;;;;;;;;;;;;;;;5084451;28;19920;-50
2023/06/19 15:08:21;;;;;;;;;;;;;;;;;;5081660;28;19908;-51
2023/06/19 15:10:47;;;;;;;;;;;;;;;;;;5081437;28;19961;-49
2023/06/19 15:13:13;;;;;;;;;;;;;;;;;;5081644;28;19916;-47
2023/06/19 15:15:39;;;;;;;;;;;;;;;;;;5081779;28;20409;-50
2023/06/19 15:18:07;;;;;;;;;;;;;;;;;;5083971;28;19938;-48
2023/06/19 15:20:32;;;;;;;;;;;;;;;;;;5083373;28;19965;-49
2023/06/19 15:22:58;;;;;;;;;;;;;;;;;;5083355;28;19980;-48
2023/06/19 15:25:24;;;;;;;;;;;;;;;;;;5083374;28;19913;-52
2023/06/19 15:27:50;;;;;;;;;;;;;;;;;;5077472;28;20411;-51
2023/06/19 15:30:16;;;;;;;;;;;;;;;;;;5085189;28;19916;-49
2023/06/19 15:32:43;;;;;;;;;;;;;;;;;;5084160;28;19919;-48
2023/06/19 15:35:09;;;;;;;;;;;;;;;;;;5085665;28;19912;-48
2023/06/19 15:37:35;;;;;;;;;;;;;;;;;;5084958;28;19916;-48
2023/06/19 15:40:01;;;;;;;;;;;;;;;;;;5085910;28;20021;-50
2023/06/19 15:42:28;;;;;;;;;;;;;;;;;;5084607;28;20431;-51
2023/06/19 15:44:54;;;;;;;;;;;;;;;;;;5086116;28;19908;-48
2023/06/19 15:47:20;;;;;;;;;;;;;;;;;;5086964;28;20380;-50
2023/06/19 15:49:46;;;;;;;;;;;;;;;;;;5082511;28;19948;-48
2023/06/19 15:52:12;;;;;;;;;;;;;;;;;;5086146;28;19916;-50
2023/06/19 15:54:39;;;;;;;;;;;;;;;;;;5086625;28;19916;-51
2023/06/19 15:57:05;;;;;;;;;;;;;;;;;;5082165;28;20237;-47
2023/06/19 15:59:31;;;;;;;;;;;;;;;;;;5083523;28;19916;-48
2023/06/19 16:01:58;;;;;;;;;;;;;;;;;;5082856;28;19912;-49
2023/06/19 16:04:24;;;;;;;;;;;;;;;;;;5084625;28;19970;-49
2023/06/19 16:06:49;;;;;;;;;;;;;;;;;;5080989;28;20392;-48
2023/06/19 16:09:15;;;;;;;;;;;;;;;;;;5084286;28;19916;-49
2023/06/19 16:11:41;;;;;;;;;;;;;;;;;;5085809;28;19956;-48
2023/06/19 16:14:07;;;;;;;;;;;;;;;;;;5085196;28;20280;-50
2023/06/19 16:16:33;;;;;;;;;;;;;;;;;;5085601;28;19938;-51
2023/06/19 16:18:59;;;;;;;;;;;;;;;;;;5085195;28;20411;-47
2023/06/19 16:21:27;;;;;;;;;;;;;;;;;;5086253;28;19999;-52
2023/06/19 16:23:53;;;;;;;;;;;;;;;;;;5085639;28;19908;-50
2023/06/19 16:26:20;;;;;;;;;;;;;;;;;;5085518;28;19980;-53
2023/06/19 16:28:47;;;;;;;;;;;;;;;;;;5082530;28;19915;-49
2023/06/19 16:31:14;;;;;;;;;;;;;;;;;;5085730;28;19923;-52
2023/06/19 16:33:40;;;;;;;;;;;;;;;;;;5076095;28;20469;-51
2023/06/19 16:36:06;;;;;;;;;;;;;;;;;;5085462;28;20003;-50
2023/06/19 16:38:32;;;;;;;;;;;;;;;;;;5086191;28;19908;-50
2023/06/19 16:40:58;;;;;;;;;;;;;;;;;;5085186;28;19974;-52
2023/06/19 16:43:25;;;;;;;;;;;;;;;;;;5082312;28;20452;-52
2023/06/19 16:45:50;;;;;;;;;;;;;;;;;;5083369;28;19916;-53
2023/06/19 16:48:16;;;;;;;;;;;;;;;;;;5086497;28;19919;-52
2023/06/19 16:50:42;;;;;;;;;;;;;;;;;;5084677;28;19939;-48
2023/06/19 16:53:09;;;;;;;;;;;;;;;;;;5085504;28;19920;-51
2023/06/19 16:55:35;;;;;;;;;;;;;;;;;;5083378;28;19912;-50
2023/06/19 16:58:01;;;;;;;;;;;;;;;;;;5084604;28;20439;-51
2023/06/19 17:00:27;;;;;;;;;;;;;;;;;;5085533;28;19957;-47
2023/06/19 17:02:55;;;;;;;;;;;;;;;;;;5083658;28;19916;-47
2023/06/19 17:05:21;;;;;;;;;;;;;;;;;;5080716;28;19916;-50
2023/06/19 17:07:48;;;;;;;;;;;;;;;;;;5083709;28;19912;-48
2023/06/19 17:10:17;;;;;;;;;;;;;;;;;;5099962;28;19915;-49
2023/06/19 17:12:43;;;;;;;;;;;;;;;;;;5093943;28;20266;-50
2023/06/19 17:15:09;;;;;;;;;;;;;;;;;;5081661;28;19928;-51
2023/06/19 17:17:35;;;;;;;;;;;;;;;;;;5081151;28;19912;-50
2023/06/19 17:20:00;;;;;;;;;;;;;;;;;;5081848;28;20572;-52
2023/06/19 17:22:26;;;;;;;;;;;;;;;;;;5078911;28;19920;-49
2023/06/19 17:24:52;;;;;;;;;;;;;;;;;;5080437;28;19919;-52
2023/06/19 17:27:19;;;;;;;;;;;;;;;;;;5083806;28;19923;-50
2023/06/19 17:29:45;;;;;;;;;;;;;;;;;;5081405;28;19926;-49
2023/06/19 17:32:11;;;;;;;;;;;;;;;;;;5082041;28;19919;-48
2023/06/19 17:34:38;;;;;;;;;;;;;;;;;;5082669;28;20312;-50
2023/06/19 17:37:05;;;;;;;;;;;;;;;;;;5081893;28;20354;-47
2023/06/19 17:39:30;;;;;;;;;;;;;;;;;;5083677;28;20026;-50
2023/06/19 17:41:57;;;;;;;;;;;;;;;;;;5080265;28;20023;-48
2023/06/19 17:44:26;;;;;;;;;;;;;;;;;;5079331;28;19923;-51
2023/06/19 17:46:52;;;;;;;;;;;;;;;;;;5078820;28;19912;-52
2023/06/19 17:49:20;;;;;;;;;;;;;;;;;;5076109;28;19923;-49
2023/06/19 17:51:46;;;;;;;;;;;;;;;;;;5077656;28;19927;-50
2023/06/19 17:54:12;;;;;;;;;;;;;;;;;;5078927;28;19912;-49
2023/06/19 17:56:38;;;;;;;;;;;;;;;;;;5082615;28;19932;-49
2023/06/19 17:59:04;;;;;;;;;;;;;;;;;;5081293;28;20428;-48
2023/06/19 18:01:30;;;;;;;;;;;;;;;;;;5078557;28;20388;-51
2023/06/19 18:03:57;;;;;;;;;;;;;;;;;;5087297;28;19923;-49
2023/06/19 18:06:23;;;;;;;;;;;;;;;;;;5077005;28;19935;-50
2023/06/19 18:08:50;;;;;;;;;;;;;;;;;;5078180;28;20412;-49
2023/06/19 18:11:16;;;;;;;;;;;;;;;;;;5083204;28;19928;-50
2023/06/19 18:13:42;;;;;;;;;;;;;;;;;;5083289;28;20057;-49
2023/06/19 18:16:08;;;;;;;;;;;;;;;;;;5084037;28;19912;-47
2023/06/19 18:18:33;;;;;;;;;;;;;;;;;;5084669;28;19912;-48
2023/06/19 18:20:59;;;;;;;;;;;;;;;;;;5084179;28;19919;-51
2023/06/19 18:23:25;;;;;;;;;;;;;;;;;;5073169;28;19943;-47
2023/06/19 18:25:51;;;;;;;;;;;;;;;;;;5081681;28;20216;-48
2023/06/19 18:28:17;;;;;;;;;;;;;;;;;;5083399;28;19912;-49
2023/06/19 18:30:43;;;;;;;;;;;;;;;;;;5079594;28;20022;-52
2023/06/19 18:33:09;;;;;;;;;;;;;;;;;;5077932;28;19927;-50
2023/06/19 18:35:35;;;;;;;;;;;;;;;;;;5081356;28;19920;-50
2023/06/19 18:38:01;;;;;;;;;;;;;;;;;;5084911;28;19954;-47
2023/06/19 18:40:26;;;;;;;;;;;;;;;;;;5083371;28;19947;-50
2023/06/19 18:42:52;;;;;;;;;;;;;;;;;;5083728;28;19917;-46
2023/06/19 18:45:18;;;;;;;;;;;;;;;;;;5083588;28;19922;-50
2023/06/19 18:47:44;;;;;;;;;;;;;;;;;;5085305;28;19912;-47
2023/06/19 18:50:12;;;;;;;;;;;;;;;;;;5084052;28;20479;-49
2023/06/19 18:52:38;;;;;;;;;;;;;;;;;;5085338;28;19916;-51
2023/06/19 18:55:04;;;;;;;;;;;;;;;;;;5083135;28;20348;-47
2023/06/19 18:57:30;;;;;;;;;;;;;;;;;;5085957;28;19919;-50
2023/06/19 18:59:57;;;;;;;;;;;;;;;;;;5084315;28;19951;-49
2023/06/19 19:02:23;;;;;;;;;;;;;;;;;;5084254;28;19912;-50
2023/06/19 19:04:49;;;;;;;;;;;;;;;;;;5083465;28;19927;-47
2023/06/19 19:07:15;;;;;;;;;;;;;;;;;;5077195;28;19916;-49
2023/06/19 19:09:42;;;;;;;;;;;;;;;;;;5079969;28;20014;-49
2023/06/19 19:12:09;;;;;;;;;;;;;;;;;;5079763;28;19920;-51
2023/06/19 19:14:35;;;;;;;;;;;;;;;;;;5077471;28;20288;-49
2023/06/19 19:17:03;;;;;;;;;;;;;;;;;;5082983;28;19912;-47
2023/06/19 19:19:29;;;;;;;;;;;;;;;;;;5081413;28;20010;-47
2023/06/19 19:21:56;;;;;;;;;;;;;;;;;;5079963;28;20011;-47
2023/06/19 19:24:21;;;;;;;;;;;;;;;;;;5081590;28;20436;-49
2023/06/19 19:26:48;;;;;;;;;;;;;;;;;;5076216;28;20006;-48
2023/06/19 19:29:14;;;;;;;;;;;;;;;;;;5080824;28;19919;-50
2023/06/19 19:31:40;;;;;;;;;;;;;;;;;;5080614;28;19916;-47
2023/06/19 19:34:06;;;;;;;;;;;;;;;;;;5078621;28;19918;-50
2023/06/19 19:36:32;;;;;;;;;;;;;;;;;;5081550;28;19916;-48
2023/06/19 19:38:58;;;;;;;;;;;;;;;;;;5077430;28;19915;-48
2023/06/19 19:41:24;;;;;;;;;;;;;;;;;;5080186;28;19916;-48
2023/06/19 19:43:50;;;;;;;;;;;;;;;;;;5079533;28;20396;-50
2023/06/19 19:46:16;;;;;;;;;;;;;;;;;;5079290;28;19938;-52
2023/06/19 19:48:41;;;;;;;;;;;;;;;;;;5076171;28;19973;-49
2023/06/19 19:51:07;;;;;;;;;;;;;;;;;;5076168;28;20062;-50
2023/06/19 19:53:33;;;;;;;;;;;;;;;;;;5077036;28;19916;-50
2023/06/19 19:55:59;;;;;;;;;;;;;;;;;;5079451;28;19916;-51
2023/06/19 19:58:25;;;;;;;;;;;;;;;;;;5078019;28;19919;-52
2023/06/19 20:00:51;;;;;;;;;;;;;;;;;;5082293;28;20260;-47
2023/06/19 20:03:17;;;;;;;;;;;;;;;;;;5084366;28;19916;-50
2023/06/19 20:05:43;;;;;;;;;;;;;;;;;;5075390;28;20408;-52
2023/06/19 20:08:09;;;;;;;;;;;;;;;;;;5077479;28;20011;-51
2023/06/19 20:10:36;;;;;;;;;;;;;;;;;;5079839;28;19978;-51
2023/06/19 20:13:02;;;;;;;;;;;;;;;;;;5077662;28;19969;-47
2023/06/19 20:15:28;;;;;;;;;;;;;;;;;;5078015;28;19916;-48
2023/06/19 20:17:55;;;;;;;;;;;;;;;;;;5077204;28;19962;-48
2023/06/19 20:20:21;;;;;;;;;;;;;;;;;;5077927;28;19920;-50
2023/06/19 20:22:47;;;;;;;;;;;;;;;;;;5076401;28;19924;-47
2023/06/19 20:25:13;;;;;;;;;;;;;;;;;;5079756;28;19916;-49
2023/06/19 20:27:39;;;;;;;;;;;;;;;;;;5081136;28;20341;-50
2023/06/19 20:30:06;;;;;;;;;;;;;;;;;;5077506;28;20306;-51
2023/06/19 20:32:33;;;;;;;;;;;;;;;;;;5081617;28;19912;-50
2023/06/19 20:35:00;;;;;;;;;;;;;;;;;;5080166;28;20514;-47
2023/06/19 20:37:26;;;;;;;;;;;;;;;;;;5077433;28;19916;-49
2023/06/19 20:39:51;;;;;;;;;;;;;;;;;;5078252;28;20305;-49
2023/06/19 20:42:18;;;;;;;;;;;;;;;;;;5078803;28;20027;-49
2023/06/19 20:44:44;;;;;;;;;;;;;;;;;;5079923;28;19920;-51
2023/06/19 20:47:10;;;;;;;;;;;;;;;;;;5081310;28;19923;-48
2023/06/19 20:49:36;;;;;;;;;;;;;;;;;;5077285;28;19920;-51
2023/06/19 20:52:02;;;;;;;;;;;;;;;;;;5077711;28;19968;-47
2023/06/19 20:54:28;;;;;;;;;;;;;;;;;;5079365;28;19916;-47
2023/06/19 20:56:54;;;;;;;;;;;;;;;;;;5073808;28;19938;-50
2023/06/19 20:59:20;;;;;;;;;;;;;;;;;;5079199;28;20327;-46
2023/06/19 21:01:46;;;;;;;;;;;;;;;;;;5074949;28;19920;-48
2023/06/19 21:04:13;;;;;;;;;;;;;;;;;;5080612;28;19912;-47
2023/06/19 21:06:39;;;;;;;;;;;;;;;;;;5079685;28;19912;-47
2023/06/19 21:09:05;;;;;;;;;;;;;;;;;;5076870;28;19921;-51
2023/06/19 21:11:32;;;;;;;;;;;;;;;;;;5064200;28;19920;-48
2023/06/19 21:13:58;;;;;;;;;;;;;;;;;;5081844;28;19922;-46
2023/06/19 21:16:24;;;;;;;;;;;;;;;;;;5085221;28;19908;-47
2023/06/19 21:18:50;;;;;;;;;;;;;;;;;;5081790;28;20150;-48
2023/06/19 21:21:16;;;;;;;;;;;;;;;;;;5083402;28;19938;-48
2023/06/19 21:23:42;;;;;;;;;;;;;;;;;;5083911;28;19911;-50
2023/06/19 21:26:07;;;;;;;;;;;;;;;;;;5084503;28;19912;-48
2023/06/19 21:28:34;;;;;;;;;;;;;;;;;;5084223;28;20003;-48
2023/06/19 21:31:00;;;;;;;;;;;;;;;;;;5083887;28;19916;-51
2023/06/19 21:33:31;;;;;;;;;;;;;;;;;;5084038;28;19916;-50
2023/06/19 21:35:58;;;;;;;;;;;;;;;;;;5083866;28;19912;-48
2023/06/19 21:38:27;;;;;;;;;;;;;;;;;;5084332;28;19916;-47
2023/06/19 21:40:53;;;;;;;;;;;;;;;;;;5064457;28;19919;-50
2023/06/19 21:43:19;;;;;;;;;;;;;;;;;;5080819;28;19916;-51